Time;durP1;ratioP1;P1;durP2;ratioP2;P2;SDS_P1;SDS_P2;PMS_P1;PMS_P2;Temp;Humidity;BMP_temperature;BMP_pressure;BME280_temperature;BME280_humidity;BME280_pressure;Samples;Min_cycle;Max_cycle;Signal;HPM_P1;HPM_P2
2024/01/10 00:01:51;;;;;;;13.50;8.43;;;10.10;80.90;;;;;;5054092;28;20041;-79
2024/01/10 00:04:17;;;;;;;11.25;8.25;;;10.00;80.80;;;;;;5054134;28;20542;-78
2024/01/10 00:06:43;;;;;;;11.98;7.85;;;10.00;80.80;;;;;;5036213;28;20071;-78
2024/01/10 00:09:09;;;;;;;12.20;7.25;;;10.00;80.90;;;;;;5054355;28;20117;-78
2024/01/10 00:11:35;;;;;;;11.60;7.57;;;9.90;81.80;;;;;;5052758;28;20071;-78
2024/01/10 00:14:03;;;;;;;13.77;7.78;;;9.90;81.80;;;;;;5054154;28;20044;-78
2024/01/10 00:16:28;;;;;;;10.27;7.03;;;9.90;82.00;;;;;;5035832;28;20174;-78
2024/01/10 00:18:54;;;;;;;13.68;7.63;;;9.90;82.00;;;;;;5053642;28;20105;-77
2024/01/10 00:21:20;;;;;;;11.93;7.95;;;9.90;82.10;;;;;;5053084;28;20044;-77
2024/01/10 00:23:45;;;;;;;12.73;8.48;;;9.80;81.80;;;;;;5052754;28;20160;-77
2024/01/10 00:26:11;;;;;;;11.18;7.82;;;9.80;82.10;;;;;;5034977;28;20037;-78
2024/01/10 00:28:37;;;;;;;13.23;8.20;;;9.80;82.60;;;;;;5053590;28;20495;-77
2024/01/10 00:31:03;;;;;;;13.90;8.32;;;9.80;82.70;;;;;;5053957;28;20111;-78
2024/01/10 00:33:28;;;;;;;11.80;8.07;;;9.80;83.10;;;;;;5053856;28;20128;-77
2024/01/10 00:35:54;;;;;;;11.48;7.63;;;9.80;82.90;;;;;;5054170;28;20044;-77
2024/01/10 00:38:20;;;;;;;12.15;8.50;;;9.80;83.00;;;;;;5053742;28;20057;-77
2024/01/10 00:40:45;;;;;;;15.65;7.90;;;9.80;83.60;;;;;;5053563;28;20064;-78
2024/01/10 00:43:11;;;;;;;14.07;7.88;;;9.70;83.40;;;;;;5053909;28;20041;-79
2024/01/10 00:45:37;;;;;;;15.07;8.63;;;9.80;83.60;;;;;;5053504;28;20119;-77
2024/01/10 00:48:02;;;;;;;11.73;7.72;;;9.70;83.60;;;;;;5053652;28;20117;-77
2024/01/10 00:50:28;;;;;;;13.57;7.70;;;9.60;83.70;;;;;;5057805;28;20040;-78
2024/01/10 00:52:54;;;;;;;12.93;8.32;;;9.60;83.90;;;;;;5062755;28;20502;-78
2024/01/10 00:55:19;;;;;;;15.05;8.15;;;9.50;84.00;;;;;;5057448;28;20041;-79
2024/01/10 00:57:45;;;;;;;13.35;8.10;;;9.50;83.80;;;;;;5056891;28;20036;-79
2024/01/10 01:00:12;;;;;;;12.90;7.50;;;9.50;84.00;;;;;;5053639;28;20111;-77
2024/01/10 01:02:41;;;;;;;13.70;8.85;;;9.50;84.30;;;;;;5054234;28;20134;-78
2024/01/10 01:05:07;;;;;;;14.27;8.45;;;9.50;84.00;;;;;;5053233;28;20040;-78
2024/01/10 01:07:33;;;;;;;12.00;7.68;;;9.40;83.90;;;;;;5053948;28;20108;-78
2024/01/10 01:09:59;;;;;;;12.48;8.20;;;9.50;83.90;;;;;;5052549;28;20121;-79
2024/01/10 01:12:25;;;;;;;12.18;8.18;;;9.50;83.80;;;;;;5053843;28;20033;-78
2024/01/10 01:14:51;;;;;;;11.48;7.55;;;9.50;84.10;;;;;;5053275;28;20086;-76
2024/01/10 01:17:17;;;;;;;13.07;7.93;;;9.50;83.80;;;;;;5053564;28;20044;-78
2024/01/10 01:19:42;;;;;;;13.38;7.93;;;9.50;83.70;;;;;;5053689;28;20066;-78
2024/01/10 01:22:08;;;;;;;11.13;7.80;;;9.50;83.80;;;;;;5053531;28;20119;-78
2024/01/10 01:24:34;;;;;;;12.10;7.95;;;9.40;84.00;;;;;;5053170;28;20033;-78
2024/01/10 01:26:59;;;;;;;17.30;8.48;;;9.30;84.00;;;;;;5035515;28;20044;-78
2024/01/10 01:29:25;;;;;;;11.45;7.18;;;9.30;84.10;;;;;;5053501;28;20091;-77
2024/01/10 01:31:52;;;;;;;11.75;7.63;;;9.30;84.10;;;;;;5053188;28;20476;-78
2024/01/10 01:34:18;;;;;;;11.50;7.72;;;9.30;84.30;;;;;;5053395;28;20107;-78
2024/01/10 01:36:43;;;;;;;12.88;7.68;;;9.30;84.10;;;;;;5053039;28;20112;-79
2024/01/10 01:39:09;;;;;;;11.57;7.80;;;9.30;84.10;;;;;;5052417;28;20441;-78
2024/01/10 01:41:35;;;;;;;13.10;7.88;;;9.30;84.20;;;;;;5052583;28;20048;-79
2024/01/10 01:44:00;;;;;;;10.57;7.43;;;9.30;84.20;;;;;;5052610;28;20563;-79
2024/01/10 01:46:28;;;;;;;13.43;7.25;;;9.30;84.00;;;;;;5052614;28;20094;-79
2024/01/10 01:48:53;;;;;;;14.52;7.95;;;9.40;84.00;;;;;;5052609;28;20049;-77
2024/01/10 01:51:21;;;;;;;12.80;8.45;;;9.30;83.80;;;;;;5052590;28;20051;-78
2024/01/10 01:53:49;;;;;;;12.05;7.43;;;9.30;84.10;;;;;;5052545;28;20127;-78
2024/01/10 01:56:16;;;;;;;12.65;7.72;;;9.20;84.10;;;;;;5052631;28;20065;-78
2024/01/10 01:58:43;;;;;;;11.75;7.60;;;9.20;84.30;;;;;;5052507;28;20507;-79
2024/01/10 02:01:11;;;;;;;12.25;8.10;;;9.10;84.30;;;;;;5052574;28;20395;-78
2024/01/10 02:03:37;;;;;;;13.38;7.68;;;9.20;84.60;;;;;;5052726;28;20029;-77
2024/01/10 02:06:03;;;;;;;13.30;7.47;;;9.20;84.60;;;;;;5052222;28;20029;-78
2024/01/10 02:08:35;;;;;;;11.02;7.40;;;9.10;84.50;;;;;;5052229;28;20037;-78
2024/01/10 02:11:02;;;;;;;12.40;7.80;;;9.10;84.40;;;;;;5052094;28;20124;-78
2024/01/10 02:13:28;;;;;;;14.20;7.82;;;9.00;84.00;;;;;;5052660;28;20065;-79
2024/01/10 02:15:55;;;;;;;11.85;7.68;;;8.90;84.30;;;;;;5052335;28;20105;-78
2024/01/10 02:18:21;;;;;;;13.63;7.53;;;8.90;84.10;;;;;;5052372;28;20029;-79
2024/01/10 02:20:47;;;;;;;12.50;7.70;;;8.90;84.60;;;;;;5052850;28;20045;-76
2024/01/10 02:23:13;;;;;;;12.95;7.40;;;8.90;84.50;;;;;;5056647;28;20086;-77
2024/01/10 02:25:40;;;;;;;11.90;8.00;;;8.80;84.60;;;;;;5056672;28;20365;-78
2024/01/10 02:28:06;;;;;;;13.20;7.50;;;8.90;84.90;;;;;;5057048;28;20033;-78
2024/01/10 02:30:32;;;;;;;13.80;7.60;;;8.90;84.70;;;;;;5058317;28;20104;-78
2024/01/10 02:32:58;;;;;;;13.35;7.53;;;8.80;84.70;;;;;;5056804;28;20044;-77
2024/01/10 02:35:24;;;;;;;12.32;7.40;;;8.80;84.90;;;;;;5056493;28;20040;-77
2024/01/10 02:37:51;;;;;;;12.52;7.90;;;8.80;85.40;;;;;;5056345;28;20025;-78
2024/01/10 02:40:17;;;;;;;12.27;7.55;;;8.80;85.40;;;;;;5056340;28;20048;-79
2024/01/10 02:42:43;;;;;;;14.73;7.18;;;8.80;85.60;;;;;;5056300;28;20037;-77
2024/01/10 02:45:09;;;;;;;12.23;7.90;;;8.80;85.60;;;;;;5056376;28;20033;-79
2024/01/10 02:47:37;;;;;;;12.60;7.70;;;8.80;85.80;;;;;;5056090;28;20040;-77
2024/01/10 02:50:03;;;;;;;14.77;7.90;;;8.90;85.40;;;;;;5056180;28;20053;-78
2024/01/10 02:52:29;;;;;;;16.60;7.63;;;8.80;85.70;;;;;;5055907;28;20108;-79
2024/01/10 02:54:54;;;;;;;12.75;7.43;;;8.90;85.70;;;;;;5056098;28;20451;-77
2024/01/10 02:57:20;;;;;;;10.88;7.15;;;8.90;85.70;;;;;;5056006;28;20032;-78
2024/01/10 02:59:46;;;;;;;12.00;6.82;;;8.90;85.20;;;;;;5056088;28;20112;-78
2024/01/10 03:02:11;;;;;;;11.05;7.00;;;9.00;85.40;;;;;;5056218;28;20040;-78
2024/01/10 03:04:38;;;;;;;10.80;6.90;;;9.00;85.40;;;;;;5056463;28;20044;-77
2024/01/10 03:07:03;;;;;;;11.65;7.10;;;9.20;85.10;;;;;;5055945;28;20029;-79
2024/01/10 03:09:29;;;;;;;10.82;7.15;;;9.20;84.90;;;;;;5055738;28;20036;-78
2024/01/10 03:11:55;;;;;;;12.95;7.00;;;9.20;84.80;;;;;;5056159;28;20033;-78
2024/01/10 03:14:21;;;;;;;13.45;6.93;;;9.20;84.70;;;;;;5056103;28;20541;-77
2024/01/10 03:16:47;;;;;;;9.88;6.88;;;9.20;85.00;;;;;;5055851;28;20037;-78
2024/01/10 03:19:13;;;;;;;11.57;6.53;;;9.20;84.90;;;;;;5038105;28;20488;-78
2024/01/10 03:21:39;;;;;;;12.05;7.25;;;9.10;84.70;;;;;;5055635;28;20049;-76
2024/01/10 03:24:05;;;;;;;13.40;6.25;;;9.20;85.10;;;;;;5055685;28;20036;-78
2024/01/10 03:26:31;;;;;;;11.18;6.35;;;9.10;84.70;;;;;;5055589;28;20087;-78
2024/01/10 03:28:57;;;;;;;10.65;6.10;;;9.10;84.80;;;;;;5055712;28;20033;-77
2024/01/10 03:31:23;;;;;;;10.38;6.13;;;9.10;84.90;;;;;;5055877;28;20033;-78
2024/01/10 03:33:49;;;;;;;10.18;6.70;;;9.20;84.90;;;;;;5055523;28;20056;-77
2024/01/10 03:36:18;;;;;;;12.75;6.43;;;9.30;84.80;;;;;;5055776;28;20142;-77
2024/01/10 03:38:44;;;;;;;10.73;6.63;;;9.30;84.90;;;;;;5037597;28;20047;-79
2024/01/10 03:41:17;;;;;;;10.63;6.32;;;9.30;84.60;;;;;;5055860;28;20087;-77
2024/01/10 03:43:44;;;;;;;11.10;5.97;;;9.30;84.40;;;;;;5055771;28;20120;-77
2024/01/10 03:46:10;;;;;;;12.73;6.78;;;9.30;84.50;;;;;;5037512;28;20460;-78
2024/01/10 03:48:36;;;;;;;11.35;6.55;;;9.30;84.80;;;;;;5054820;28;20456;-79
2024/01/10 03:51:03;;;;;;;11.82;6.47;;;9.30;84.50;;;;;;5055030;28;20403;-77
2024/01/10 03:53:29;;;;;;;11.82;6.90;;;9.30;84.40;;;;;;5055446;28;20061;-79
2024/01/10 03:55:55;;;;;;;11.02;6.35;;;9.30;84.60;;;;;;5055728;28;20081;-77
2024/01/10 03:58:20;;;;;;;10.30;6.03;;;9.30;84.40;;;;;;5055074;28;20040;-78
2024/01/10 04:00:46;;;;;;;11.23;5.70;;;9.40;84.50;;;;;;5055066;28;20053;-78
2024/01/10 04:03:12;;;;;;;11.38;6.45;;;9.40;84.30;;;;;;5054364;28;20429;-77
2024/01/10 04:05:37;;;;;;;11.98;6.43;;;9.30;84.40;;;;;;5036455;28;20183;-78
2024/01/10 04:08:04;;;;;;;12.23;6.40;;;9.30;84.40;;;;;;5054399;28;20505;-78
2024/01/10 04:10:29;;;;;;;9.40;6.25;;;9.20;84.50;;;;;;5054644;28;20429;-78
2024/01/10 04:12:55;;;;;;;9.75;6.20;;;9.20;84.30;;;;;;5054694;28;20119;-77
2024/01/10 04:15:21;;;;;;;10.63;6.60;;;9.20;84.20;;;;;;5054670;28;20037;-78
2024/01/10 04:17:47;;;;;;;9.68;6.65;;;9.10;84.60;;;;;;5054461;28;20033;-79
2024/01/10 04:20:13;;;;;;;12.15;6.50;;;9.10;84.70;;;;;;5054227;28;20405;-78
2024/01/10 04:22:38;;;;;;;10.43;6.55;;;9.10;84.60;;;;;;5054208;28;20156;-78
2024/01/10 04:25:07;;;;;;;10.88;6.32;;;9.20;84.70;;;;;;5054520;28;20040;-77
2024/01/10 04:27:33;;;;;;;10.95;6.07;;;9.20;84.90;;;;;;5054041;28;20045;-79
2024/01/10 04:29:58;;;;;;;10.57;6.60;;;9.20;84.50;;;;;;5057098;28;20025;-76
2024/01/10 04:32:24;;;;;;;12.68;7.43;;;9.20;84.60;;;;;;5059818;28;20057;-78
2024/01/10 04:34:50;;;;;;;11.13;6.43;;;9.20;84.70;;;;;;5054863;28;20041;-77
2024/01/10 04:37:16;;;;;;;11.18;6.70;;;9.20;85.00;;;;;;5056587;28;20056;-77
2024/01/10 04:39:45;;;;;;;9.90;6.15;;;9.20;85.30;;;;;;5056323;28;20116;-77
2024/01/10 04:42:11;;;;;;;12.10;6.88;;;9.20;85.30;;;;;;5055250;28;20080;-76
2024/01/10 04:44:37;;;;;;;10.68;6.65;;;9.20;85.10;;;;;;5054436;28;20040;-79
2024/01/10 04:47:03;;;;;;;13.18;7.05;;;9.20;85.30;;;;;;5054838;28;20369;-79
2024/01/10 04:49:29;;;;;;;9.85;6.18;;;9.20;85.30;;;;;;5054699;28;20048;-76
2024/01/10 04:51:55;;;;;;;9.80;6.13;;;9.20;85.40;;;;;;5054478;28;20131;-79
2024/01/10 04:54:20;;;;;;;12.45;6.38;;;9.20;85.40;;;;;;5054081;28;20037;-78
2024/01/10 04:56:46;;;;;;;10.95;6.50;;;9.20;85.30;;;;;;5054119;28;20044;-77
2024/01/10 04:59:12;;;;;;;11.48;6.72;;;9.20;85.70;;;;;;5053760;28;20079;-78
2024/01/10 05:01:38;;;;;;;10.98;6.97;;;9.20;85.70;;;;;;5053359;28;20080;-77
2024/01/10 05:04:03;;;;;;;14.10;6.68;;;9.10;85.70;;;;;;5053837;28;20029;-78
2024/01/10 05:06:29;;;;;;;11.00;6.40;;;9.10;85.80;;;;;;5053748;28;20483;-78
2024/01/10 05:08:57;;;;;;;10.52;6.32;;;9.20;85.80;;;;;;5053593;28;20036;-78
2024/01/10 05:11:25;;;;;;;10.93;7.07;;;9.20;85.90;;;;;;5053387;28;20133;-78
2024/01/10 05:13:51;;;;;;;10.68;6.90;;;9.20;85.80;;;;;;5053702;28;20027;-79
2024/01/10 05:16:17;;;;;;;12.10;7.40;;;9.20;86.10;;;;;;5035972;28;20060;-77
2024/01/10 05:18:43;;;;;;;12.35;6.03;;;9.20;86.00;;;;;;5053662;28;20069;-78
2024/01/10 05:21:09;;;;;;;10.77;6.60;;;9.20;86.10;;;;;;5053447;28;20041;-79
2024/01/10 05:23:35;;;;;;;12.73;6.70;;;9.20;86.10;;;;;;5053727;28;20029;-79
2024/01/10 05:26:01;;;;;;;10.35;6.20;;;9.20;86.10;;;;;;5053330;28;20511;-78
2024/01/10 05:28:27;;;;;;;11.23;6.28;;;9.30;86.10;;;;;;5053302;28;20029;-77
2024/01/10 05:30:53;;;;;;;11.13;6.63;;;9.30;86.10;;;;;;5052709;28;20040;-77
2024/01/10 05:33:19;;;;;;;9.55;5.93;;;9.30;85.90;;;;;;5053409;28;20037;-80
2024/01/10 05:35:45;;;;;;;12.15;6.57;;;9.20;86.00;;;;;;5053267;28;20033;-79
2024/01/10 05:38:11;;;;;;;10.85;6.32;;;9.20;86.10;;;;;;5053017;28;20534;-79
2024/01/10 05:40:37;;;;;;;11.95;6.88;;;9.20;86.10;;;;;;5052779;28;20135;-78
2024/01/10 05:43:03;;;;;;;10.32;6.28;;;9.20;86.30;;;;;;5052901;28;20056;-80
2024/01/10 05:45:29;;;;;;;12.82;7.40;;;9.10;86.40;;;;;;5052812;28;20488;-78
2024/01/10 05:47:54;;;;;;;15.82;7.43;;;9.10;86.20;;;;;;5052719;28;20056;-80
2024/01/10 05:50:21;;;;;;;11.10;6.68;;;9.10;86.50;;;;;;5052583;28;20041;-77
2024/01/10 05:52:47;;;;;;;11.77;6.75;;;9.10;86.50;;;;;;5052703;28;20113;-77
2024/01/10 05:55:13;;;;;;;14.20;7.22;;;9.10;86.40;;;;;;5052442;28;20067;-77
2024/01/10 05:57:39;;;;;;;11.77;7.00;;;9.00;86.30;;;;;;5052389;28;20037;-78
2024/01/10 06:00:12;;;;;;;10.90;6.70;;;9.10;86.70;;;;;;5052495;28;20439;-78
2024/01/10 06:02:41;;;;;;;13.05;7.53;;;9.10;86.60;;;;;;5052672;28;20048;-78
2024/01/10 06:05:11;;;;;;;10.23;7.07;;;9.10;86.30;;;;;;5052171;28;20043;-78
2024/01/10 06:07:37;;;;;;;11.48;7.05;;;9.10;86.80;;;;;;5052348;28;20032;-79
2024/01/10 06:10:04;;;;;;;11.38;7.18;;;9.10;86.30;;;;;;5052430;28;20029;-72
2024/01/10 06:12:29;;;;;;;11.48;7.60;;;9.20;86.70;;;;;;5051844;28;20102;-75
2024/01/10 06:14:55;;;;;;;9.00;6.65;;;9.20;86.50;;;;;;5049123;28;20042;-72
2024/01/10 06:17:21;;;;;;;11.57;6.57;;;9.10;86.30;;;;;;5046888;28;20029;-71
2024/01/10 06:19:47;;;;;;;13.05;7.13;;;9.20;86.30;;;;;;5031648;28;20076;-78
2024/01/10 06:22:13;;;;;;;13.57;7.10;;;9.20;86.50;;;;;;5027730;28;20045;-75
2024/01/10 06:24:40;;;;;;;11.88;7.22;;;9.20;86.30;;;;;;5042088;28;20037;-72
2024/01/10 06:27:06;;;;;;;15.63;8.15;;;9.20;86.80;;;;;;5052089;28;20037;-74
2024/01/10 06:29:32;;;;;;;14.40;7.88;;;9.20;86.80;;;;;;5052024;28;20025;-79
2024/01/10 06:32:01;;;;;;;12.05;7.38;;;9.20;86.80;;;;;;5038692;28;20049;-72
2024/01/10 06:34:27;;;;;;;11.93;8.13;;;9.20;86.60;;;;;;5052112;28;20024;-73
2024/01/10 06:36:53;;;;;;;10.45;7.22;;;9.20;86.70;;;;;;5051996;28;20037;-73
2024/01/10 06:39:19;;;;;;;11.90;6.88;;;9.20;86.60;;;;;;5051932;28;20473;-73
2024/01/10 06:41:47;;;;;;;13.63;7.93;;;9.20;87.00;;;;;;5045825;28;20381;-74
2024/01/10 06:44:13;;;;;;;11.88;7.40;;;9.20;86.80;;;;;;5031353;28;20096;-75
2024/01/10 06:46:38;;;;;;;10.95;7.40;;;9.20;86.90;;;;;;5031729;28;20485;-75
2024/01/10 06:49:04;;;;;;;13.15;7.45;;;9.30;87.00;;;;;;5036563;28;20053;-74
2024/01/10 06:51:31;;;;;;;14.32;7.22;;;9.30;86.70;;;;;;5048191;28;20397;-73
2024/01/10 06:54:03;;;;;;;12.85;8.13;;;9.20;87.20;;;;;;5038716;28;20040;-73
2024/01/10 06:56:29;;;;;;;16.90;7.95;;;9.20;87.20;;;;;;5051262;28;20029;-73
2024/01/10 06:58:55;;;;;;;11.32;7.68;;;9.20;87.20;;;;;;5051729;28;20101;-74
2024/01/10 07:01:21;;;;;;;15.43;7.40;;;9.30;87.50;;;;;;5040894;28;20135;-73
2024/01/10 07:03:47;;;;;;;12.85;7.82;;;9.30;87.70;;;;;;5047165;28;20029;-74
2024/01/10 07:06:14;;;;;;;12.38;7.97;;;9.30;87.40;;;;;;5051072;28;20123;-72
2024/01/10 07:08:44;;;;;;;11.80;8.38;;;9.30;87.50;;;;;;5054609;28;20021;-74
2024/01/10 07:11:13;;;;;;;13.30;7.72;;;9.30;87.50;;;;;;5055316;28;20404;-72
2024/01/10 07:13:40;;;;;;;13.32;7.78;;;9.40;87.70;;;;;;5052638;28;20048;-73
2024/01/10 07:16:06;;;;;;;13.07;8.20;;;9.50;87.50;;;;;;5037233;28;20045;-74
2024/01/10 07:18:32;;;;;;;12.70;8.20;;;9.50;87.30;;;;;;5041070;28;20025;-72
2024/01/10 07:20:58;;;;;;;12.73;7.57;;;9.50;87.10;;;;;;5034926;28;20046;-73
2024/01/10 07:23:23;;;;;;;13.40;8.50;;;9.50;87.10;;;;;;5034855;28;20029;-71
2024/01/10 07:25:49;;;;;;;12.43;8.10;;;9.50;87.60;;;;;;5031901;28;20401;-73
2024/01/10 07:28:16;;;;;;;16.33;7.55;;;9.50;87.30;;;;;;5017315;28;20026;-72
2024/01/10 07:30:42;;;;;;;12.45;7.95;;;9.50;87.40;;;;;;5039625;28;20444;-74
2024/01/10 07:33:07;;;;;;;12.80;8.15;;;9.50;87.20;;;;;;5054567;28;20040;-73
2024/01/10 07:35:33;;;;;;;11.27;7.32;;;9.50;87.10;;;;;;5043135;28;20076;-73
2024/01/10 07:37:59;;;;;;;13.65;7.75;;;9.50;86.90;;;;;;5034728;28;20084;-71
2024/01/10 07:40:25;;;;;;;11.90;7.80;;;9.50;87.10;;;;;;5034698;28;20567;-71
2024/01/10 07:42:51;;;;;;;15.15;7.63;;;9.50;87.10;;;;;;5034919;28;20040;-72
2024/01/10 07:45:16;;;;;;;13.88;7.60;;;9.50;86.90;;;;;;5050168;28;20065;-72
2024/01/10 07:47:42;;;;;;;19.80;8.27;;;9.50;87.10;;;;;;5052325;28;20478;-72
2024/01/10 07:50:09;;;;;;;11.82;8.50;;;9.50;86.90;;;;;;5052545;28;20092;-72
2024/01/10 07:52:35;;;;;;;13.10;8.00;;;9.60;87.10;;;;;;5053101;28;20032;-72
2024/01/10 07:55:04;;;;;;;15.13;7.82;;;9.60;86.60;;;;;;5033225;28;20042;-71
2024/01/10 07:57:30;;;;;;;14.30;8.13;;;9.60;86.80;;;;;;5046348;28;20078;-72
2024/01/10 07:59:56;;;;;;;13.77;7.85;;;9.70;87.20;;;;;;5052394;28;20111;-72
2024/01/10 08:02:22;;;;;;;12.35;7.88;;;9.70;86.90;;;;;;5052213;28;20427;-72
2024/01/10 08:04:48;;;;;;;13.65;8.35;;;9.80;87.20;;;;;;5052970;28;20123;-72
2024/01/10 08:07:14;;;;;;;13.70;7.50;;;9.80;86.80;;;;;;5054259;28;20104;-72
2024/01/10 08:09:39;;;;;;;15.02;8.30;;;9.90;86.60;;;;;;5054576;28;20029;-72
2024/01/10 08:12:06;;;;;;;14.57;8.60;;;10.00;85.40;;;;;;5054741;28;20464;-73
2024/01/10 08:14:32;;;;;;;12.75;8.18;;;10.00;85.00;;;;;;5054466;28;20033;-72
2024/01/10 08:16:58;;;;;;;14.65;8.70;;;10.10;85.40;;;;;;5054474;28;20557;-72
2024/01/10 08:19:30;;;;;;;25.08;8.80;;;10.10;84.80;;;;;;5053401;28;20029;-73
2024/01/10 08:21:56;;;;;;;14.80;9.15;;;10.10;85.00;;;;;;5053912;28;20119;-73
2024/01/10 08:24:22;;;;;;;13.32;8.18;;;10.20;84.90;;;;;;5054304;28;20427;-73
2024/01/10 08:26:51;;;;;;;13.20;8.35;;;10.20;84.50;;;;;;5054072;28;20120;-73
2024/01/10 08:29:18;;;;;;;18.00;8.55;;;10.30;84.50;;;;;;5053925;28;20075;-73
2024/01/10 08:31:45;;;;;;;15.98;8.05;;;10.30;84.50;;;;;;5054035;28;20048;-74
2024/01/10 08:34:11;;;;;;;16.15;8.70;;;10.30;84.30;;;;;;5053820;28;20549;-74
2024/01/10 08:36:37;;;;;;;15.57;8.40;;;10.30;84.30;;;;;;5053777;28;20037;-73
2024/01/10 08:39:03;;;;;;;12.75;8.55;;;10.30;84.10;;;;;;5054059;28;20388;-74
2024/01/10 08:41:30;;;;;;;12.82;7.93;;;10.30;84.30;;;;;;5053905;28;20037;-73
2024/01/10 08:43:56;;;;;;;14.82;7.72;;;10.40;84.00;;;;;;5053945;28;20040;-73
2024/01/10 08:46:22;;;;;;;15.15;8.02;;;10.50;84.00;;;;;;5053978;28;20033;-73
2024/01/10 08:48:48;;;;;;;15.77;8.20;;;10.40;83.30;;;;;;5053569;28;20051;-75
2024/01/10 08:51:16;;;;;;;13.10;7.80;;;10.50;83.60;;;;;;5053440;28;20037;-74
2024/01/10 08:53:44;;;;;;;13.50;7.32;;;10.50;83.40;;;;;;5053905;28;20037;-74
2024/01/10 08:56:10;;;;;;;18.80;8.35;;;10.50;83.30;;;;;;5053958;28;20061;-74
2024/01/10 08:58:37;;;;;;;11.88;8.07;;;10.50;83.00;;;;;;5053648;28;20056;-73
2024/01/10 09:01:04;;;;;;;17.25;9.02;;;10.60;83.40;;;;;;5053448;28;20045;-73
2024/01/10 09:03:30;;;;;;;16.88;8.32;;;10.60;83.40;;;;;;5053361;28;20100;-74
2024/01/10 09:05:56;;;;;;;15.27;8.48;;;10.60;83.80;;;;;;5053672;28;20510;-73
2024/01/10 09:08:22;;;;;;;14.13;8.27;;;10.60;83.80;;;;;;5053556;28;20059;-74
2024/01/10 09:10:49;;;;;;;13.77;7.85;;;10.70;83.80;;;;;;5053237;28;20147;-74
2024/01/10 09:13:15;;;;;;;17.88;8.77;;;10.70;83.80;;;;;;5053421;28;20033;-74
2024/01/10 09:15:41;;;;;;;14.57;8.50;;;10.80;84.00;;;;;;5053403;28;20056;-74
2024/01/10 09:18:07;;;;;;;18.63;8.95;;;10.90;83.40;;;;;;5053238;28;20064;-73
2024/01/10 09:20:32;;;;;;;14.88;8.80;;;10.90;83.00;;;;;;5035026;28;20063;-73
2024/01/10 09:23:00;;;;;;;13.10;8.43;;;11.00;82.60;;;;;;5052926;28;20028;-73
2024/01/10 09:25:26;;;;;;;16.58;8.10;;;11.10;82.20;;;;;;5052900;28;20135;-74
2024/01/10 09:27:51;;;;;;;12.30;8.45;;;11.20;82.10;;;;;;5053179;28;20037;-74
2024/01/10 09:30:18;;;;;;;12.13;7.53;;;11.30;82.00;;;;;;5052226;28;20079;-73
2024/01/10 09:32:44;;;;;;;16.15;8.55;;;11.30;81.30;;;;;;5052662;28;20031;-73
2024/01/10 09:35:10;;;;;;;12.75;7.55;;;11.40;81.20;;;;;;5052914;28;20048;-74
2024/01/10 09:37:36;;;;;;;11.98;7.55;;;11.50;80.70;;;;;;5052992;28;20037;-73
2024/01/10 09:40:02;;;;;;;13.27;6.90;;;11.60;80.40;;;;;;5052831;28;20037;-74
2024/01/10 09:42:31;;;;;;;10.90;7.22;;;11.60;80.10;;;;;;5052298;28;20048;-73
2024/01/10 09:44:57;;;;;;;11.70;7.05;;;11.60;79.90;;;;;;5052726;28;20056;-72
2024/01/10 09:47:24;;;;;;;12.93;6.95;;;11.70;79.60;;;;;;5052617;28;20037;-73
2024/01/10 09:49:49;;;;;;;11.90;7.32;;;11.70;78.50;;;;;;5034643;28;20460;-73
2024/01/10 09:52:27;;;;;;;13.45;6.85;;;11.80;78.70;;;;;;5052649;28;20048;-74
2024/01/10 09:54:57;;;;;;;12.20;6.80;;;11.90;78.40;;;;;;5052607;28;20484;-72
2024/01/10 09:57:26;;;;;;;15.10;7.57;;;12.00;78.10;;;;;;5052888;28;20120;-74
2024/01/10 09:59:52;;;;;;;11.55;6.97;;;12.10;77.90;;;;;;5052505;28;20379;-74
2024/01/10 10:02:20;;;;;;;10.55;7.07;;;12.30;77.30;;;;;;5052762;28;20053;-74
2024/01/10 10:05:11;;;;;;;11.68;6.53;;;12.30;77.50;;;;;;5052479;28;20086;-73
2024/01/10 10:07:51;;;;;;;12.05;6.85;;;12.30;77.90;;;;;;5034057;28;20332;-73
2024/01/10 10:10:18;;;;;;;12.13;7.03;;;12.40;76.50;;;;;;5051993;28;20035;-73
2024/01/10 10:12:48;;;;;;;13.20;6.43;;;12.50;76.50;;;;;;5052092;28;20381;-73
2024/01/10 10:15:18;;;;;;;11.25;6.93;;;12.60;76.00;;;;;;5052356;28;20029;-73
2024/01/10 10:17:48;;;;;;;13.27;7.07;;;12.70;76.80;;;;;;5052318;28;20033;-75
2024/01/10 10:20:22;;;;;;;8.98;5.65;;;12.80;75.80;;;;;;5052290;28;20041;-74
2024/01/10 10:23:06;;;;;;;8.85;5.60;;;12.80;75.90;;;;;;5034480;28;20397;-73
2024/01/10 10:25:35;;;;;;;;;;;12.80;75.40;;;;;;5053062;28;20086;-74
2024/01/10 10:28:03;;;;;;;10.85;5.05;;;12.70;76.00;;;;;;5052373;28;19975;-73
2024/01/10 10:30:30;;;;;;;8.50;4.70;;;12.70;74.40;;;;;;5052486;28;20400;-73
2024/01/10 10:32:55;;;;;;;9.20;4.70;;;12.60;73.40;;;;;;5052037;28;20586;-73
2024/01/10 10:35:22;;;;;;;13.38;5.00;;;12.50;72.80;;;;;;5052204;28;20488;-72
2024/01/10 10:37:52;;;;;;;7.47;5.47;;;12.60;72.90;;;;;;5052079;28;20033;-74
2024/01/10 10:40:19;;;;;;;8.45;5.18;;;12.50;72.70;;;;;;5052205;28;20025;-75
2024/01/10 10:42:54;;;;;;;11.98;5.70;;;12.60;72.70;;;;;;5054099;28;20041;-72
2024/01/10 10:45:25;;;;;;;7.97;5.10;;;12.60;72.70;;;;;;5056052;28;20480;-74
2024/01/10 10:47:56;;;;;;;9.93;6.40;;;12.60;72.10;;;;;;5056303;28;20093;-74
2024/01/10 10:50:25;;;;;;;11.32;6.50;;;12.50;71.40;;;;;;5034561;28;20084;-74
2024/01/10 10:52:51;;;;;;;9.10;5.47;;;12.50;71.10;;;;;;5036051;28;20128;-73
2024/01/10 10:55:19;;;;;;;9.80;5.38;;;12.60;71.10;;;;;;5035744;28;20025;-74
2024/01/10 10:57:46;;;;;;;11.93;6.22;;;12.70;71.10;;;;;;5035952;28;20033;-74
2024/01/10 11:00:18;;;;;;;11.98;5.97;;;12.80;71.10;;;;;;5035762;28;20044;-73
2024/01/10 11:02:45;;;;;;;8.80;5.60;;;13.00;71.00;;;;;;5035939;28;20080;-73
2024/01/10 11:05:11;;;;;;;8.65;5.50;;;13.10;70.50;;;;;;5035880;28;20416;-72
2024/01/10 11:07:42;;;;;;;9.85;6.05;;;13.30;70.60;;;;;;5035818;28;20083;-74
2024/01/10 11:10:34;;;;;;;11.55;5.82;;;13.30;70.50;;;;;;5036073;28;20037;-74
2024/01/10 11:13:15;;;;;;;13.32;7.65;;;13.30;70.60;;;;;;5036040;28;20385;-74
2024/01/10 11:16:17;;;;;;;12.48;7.32;;;13.30;70.60;;;;;;5035580;28;20026;-73
2024/01/10 11:19:03;;;;;;;12.55;6.97;;;13.30;71.20;;;;;;5035659;28;20030;-74
2024/01/10 11:21:48;;;;;;;12.27;7.38;;;13.30;71.60;;;;;;5035334;28;20488;-73
2024/01/10 11:24:14;;;;;;;12.77;7.18;;;13.30;71.60;;;;;;5035859;28;20034;-74
2024/01/10 11:26:40;;;;;;;12.32;7.55;;;13.30;71.90;;;;;;5035656;28;20555;-73
2024/01/10 11:29:06;;;;;;;10.60;7.78;;;13.30;71.70;;;;;;5035000;28;20036;-74
2024/01/10 11:31:32;;;;;;;17.00;7.47;;;13.20;71.60;;;;;;5034970;28;20033;-73
2024/01/10 11:34:00;;;;;;;13.38;7.15;;;13.20;71.70;;;;;;5035110;28;20124;-72
2024/01/10 11:36:26;;;;;;;11.57;7.20;;;13.20;71.80;;;;;;5035504;28;20481;-73
2024/01/10 11:38:53;;;;;;;13.35;7.65;;;13.10;71.60;;;;;;5035293;28;20037;-74
2024/01/10 11:41:25;;;;;;;10.70;7.68;;;13.20;71.90;;;;;;5034966;28;20042;-74
2024/01/10 11:44:11;;;;;;;11.82;7.90;;;13.20;72.00;;;;;;5034784;28;20068;-74
2024/01/10 11:46:48;;;;;;;14.23;8.10;;;13.20;72.30;;;;;;4994486;28;20474;-73
2024/01/10 11:49:15;;;;;;;14.80;8.20;;;13.20;72.70;;;;;;5043862;28;20532;-72
2024/01/10 11:51:45;;;;;;;13.45;8.57;;;13.20;72.60;;;;;;5055014;28;20033;-72
2024/01/10 11:54:11;;;;;;;12.02;8.50;;;13.10;72.70;;;;;;5053834;28;20037;-72
2024/01/10 11:56:41;;;;;;;13.43;8.88;;;13.10;73.20;;;;;;5036963;28;20065;-74
2024/01/10 11:59:10;;;;;;;13.90;9.13;;;13.10;73.40;;;;;;5054755;28;20067;-73
2024/01/10 12:01:38;;;;;;;13.13;8.75;;;13.10;73.80;;;;;;5036617;28;20531;-73
2024/01/10 12:04:04;;;;;;;15.88;9.35;;;13.10;73.90;;;;;;5054604;28;20075;-73
2024/01/10 12:06:31;;;;;;;12.70;8.75;;;13.20;74.10;;;;;;5054488;28;20112;-70
2024/01/10 12:08:57;;;;;;;16.00;8.50;;;13.20;74.20;;;;;;5054402;28;20037;-73
2024/01/10 12:11:23;;;;;;;15.65;9.00;;;13.20;74.40;;;;;;5054270;28;20057;-73
2024/01/10 12:13:49;;;;;;;13.50;9.20;;;13.20;74.60;;;;;;5054317;28;20040;-74
2024/01/10 12:16:16;;;;;;;14.13;9.57;;;13.10;74.70;;;;;;5054542;28;20333;-74
2024/01/10 12:18:44;;;;;;;16.50;10.68;;;13.20;75.00;;;;;;5054318;28;20033;-72
2024/01/10 12:21:12;;;;;;;20.90;9.93;;;13.10;75.30;;;;;;5054196;28;20033;-73
2024/01/10 12:23:38;;;;;;;13.98;9.68;;;13.00;75.70;;;;;;5054724;28;20461;-73
2024/01/10 12:26:08;;;;;;;27.48;11.48;;;12.90;75.50;;;;;;5054375;28;20177;-72
2024/01/10 12:28:37;;;;;;;17.35;10.35;;;12.90;75.60;;;;;;5054294;28;20085;-74
2024/01/10 12:31:04;;;;;;;17.98;10.55;;;12.90;76.70;;;;;;5054262;28;20029;-73
2024/01/10 12:33:32;;;;;;;15.95;10.32;;;12.80;76.30;;;;;;5053909;28;20029;-73
2024/01/10 12:36:09;;;;;;;18.30;10.70;;;12.80;76.30;;;;;;5054137;28;20385;-72
2024/01/10 12:38:35;;;;;;;15.07;9.30;;;12.80;76.20;;;;;;5053865;28;20105;-73
2024/01/10 12:41:01;;;;;;;17.05;10.13;;;12.90;76.10;;;;;;5053812;28;20041;-73
2024/01/10 12:43:27;;;;;;;13.98;9.65;;;12.90;76.30;;;;;;5053888;28;20067;-73